createdAt,value
2022-08-08T00:00:55.025Z,60.4250
2022-08-08T00:00:55.557Z,60.2290
2022-08-08T00:02:03.542Z,60.7330
2022-08-08T00:02:45.377Z,61.5090
2022-08-08T00:03:47.280Z,61.0710
2022-08-08T00:04:52.979Z,61.1440
2022-08-08T00:06:03.312Z,60.9220
2022-08-08T00:06:53.563Z,60.4130
2022-08-08T00:07:54.695Z,60.3530
2022-08-08T00:08:57.569Z,60.2130
2022-08-08T00:10:00.253Z,60.2660
2022-08-08T00:11:01.782Z,59.9530
2022-08-08T00:12:09.668Z,59.7810
2022-08-08T00:13:05.282Z,59.9530
2022-08-08T00:14:17.691Z,59.9270
2022-08-08T00:15:06.251Z,59.8680
2022-08-08T00:16:09.392Z,59.9150
2022-08-08T00:17:22.757Z,59.6510
2022-08-08T00:18:12.375Z,59.6530
2022-08-08T00:19:13.819Z,60.0000
2022-08-08T00:20:16.144Z,60.1090
2022-08-08T00:21:17.413Z,59.9270
2022-08-08T00:22:19.237Z,59.6520
2022-08-08T00:23:20.315Z,59.7740
2022-08-08T00:24:24.065Z,59.7190
2022-08-08T00:25:24.325Z,59.4630
2022-08-08T00:26:29.527Z,59.3440
2022-08-08T00:27:26.674Z,59.5210
2022-08-08T00:28:35.725Z,59.5730
2022-08-08T00:29:45.817Z,59.6630
2022-08-08T00:30:31.455Z,59.7860
2022-08-08T00:32:21.039Z,59.9510
2022-08-08T00:32:36.170Z,60.3720
2022-08-08T00:34:17.464Z,60.7930
2022-08-08T00:34:39.156Z,60.3570
2022-08-08T00:35:41.722Z,59.9390
2022-08-08T00:36:43.726Z,59.8770
2022-08-08T00:37:57.219Z,59.7100
2022-08-08T00:38:54.483Z,59.7060
2022-08-08T00:41:12.008Z,59.9060
2022-08-08T00:41:12.736Z,59.9460
2022-08-08T00:42:09.130Z,60.7840
2022-08-08T00:42:57.743Z,61.0700
2022-08-08T00:43:59.380Z,60.5850
2022-08-08T00:45:00.367Z,60.7590
2022-08-08T00:46:02.960Z,60.5870
2022-08-08T00:47:14.189Z,60.3970
2022-08-08T00:48:12.365Z,60.3100
2022-08-08T00:49:22.149Z,60.3510
2022-08-08T00:50:12.176Z,60.3400
2022-08-08T00:51:15.193Z,60.3800
2022-08-08T00:52:20.183Z,60.5300
2022-08-08T00:53:17.010Z,60.2600
2022-08-08T00:54:19.780Z,59.9870
2022-08-08T00:55:35.892Z,60.1530
2022-08-08T00:56:22.047Z,60.1170
2022-08-08T00:57:34.148Z,59.9150
2022-08-08T00:58:30.548Z,60.0990
2022-08-08T00:59:44.380Z,60.2210
2022-08-08T01:00:33.374Z,60.1570
2022-08-08T01:01:38.027Z,60.0120
2022-08-08T01:03:59.158Z,60.4920
2022-08-08T01:03:59.987Z,60.4900
2022-08-08T01:04:42.183Z,60.3580
2022-08-08T01:05:58.929Z,60.1780
2022-08-08T01:06:42.183Z,60.2150
2022-08-08T01:07:55.350Z,60.2650
2022-08-08T01:08:50.169Z,60.2970
2022-08-08T01:09:48.668Z,60.2730
2022-08-08T01:10:49.814Z,60.2660
2022-08-08T01:11:51.932Z,60.1260
2022-08-08T01:12:52.073Z,60.3110
2022-08-08T01:13:58.084Z,60.3430
2022-08-08T01:15:00.215Z,60.0640
2022-08-08T01:15:58.043Z,60.1960
2022-08-08T01:17:00.667Z,60.4530
2022-08-08T01:18:02.690Z,60.6890
2022-08-08T01:19:13.891Z,60.9790
2022-08-08T01:20:05.880Z,61.0600
2022-08-08T01:21:08.286Z,60.9320
2022-08-08T01:22:15.833Z,60.7640
2022-08-08T01:24:02.853Z,60.8930
2022-08-08T01:24:13.722Z,60.7430
2022-08-08T01:25:16.664Z,60.7250
2022-08-08T01:26:16.239Z,61.1640
2022-08-08T01:27:24.148Z,61.0460
2022-08-08T01:28:20.676Z,60.7890
2022-08-08T01:29:23.739Z,61.2140
2022-08-08T01:30:25.366Z,60.9660
2022-08-08T01:32:06.727Z,61.5480
2022-08-08T01:32:28.350Z,61.3500
2022-08-08T01:33:33.853Z,60.7150
2022-08-08T01:34:30.387Z,60.7760
2022-08-08T01:35:38.525Z,60.4450
2022-08-08T01:36:35.852Z,60.4010
2022-08-08T01:37:57.236Z,60.7280
2022-08-08T01:38:40.178Z,61.1820
2022-08-08T01:39:42.865Z,60.9460
2022-08-08T01:40:45.219Z,60.8370
2022-08-08T01:41:48.353Z,60.9840
2022-08-08T01:42:47.057Z,60.9710
2022-08-08T01:43:50.881Z,61.0580
2022-08-08T01:44:53.425Z,61.0390
2022-08-08T01:45:54.535Z,60.7710
2022-08-08T01:46:55.299Z,60.7290
2022-08-08T01:48:15.707Z,60.9010
2022-08-08T01:48:59.082Z,60.7090
2022-08-08T01:50:01.309Z,60.4450
2022-08-08T01:51:03.774Z,60.3090
2022-08-08T01:53:04.381Z,60.4600
2022-08-08T01:55:08.556Z,60.1870
2022-08-08T01:55:25.628Z,60.4450
2022-08-08T01:55:25.814Z,60.7710
2022-08-08T01:56:28.648Z,60.8830
2022-08-08T01:57:17.737Z,61.0880
2022-08-08T01:58:19.156Z,61.0710
2022-08-08T01:59:20.529Z,61.1810
2022-08-08T02:00:22.787Z,60.9940
2022-08-08T02:01:23.826Z,60.7070
2022-08-08T02:02:33.999Z,60.4080
2022-08-08T02:03:54.400Z,60.3370
2022-08-08T02:04:28.418Z,60.2590
2022-08-08T02:05:33.779Z,60.3420
2022-08-08T02:06:36.589Z,60.4790
2022-08-08T02:07:41.753Z,60.3620
2022-08-08T02:08:35.051Z,60.3920
2022-08-08T02:10:02.140Z,60.7390
2022-08-08T02:10:44.909Z,60.6400
2022-08-08T02:11:59.010Z,60.2590
2022-08-08T02:12:44.297Z,60.4660
2022-08-08T02:13:53.623Z,60.2460
2022-08-08T02:14:55.503Z,60.7220
2022-08-08T02:15:51.226Z,60.5920
2022-08-08T02:16:53.786Z,60.4550
2022-08-08T02:17:54.327Z,60.1640
2022-08-08T02:18:59.031Z,59.9660
2022-08-08T02:20:09.274Z,60.1940
2022-08-08T02:21:08.638Z,60.0850
2022-08-08T02:22:03.855Z,60.2370
2022-08-08T02:23:05.521Z,60.7040
2022-08-08T02:24:07.984Z,60.6870
2022-08-08T02:25:11.733Z,61.0690
2022-08-08T02:26:15.934Z,60.8390
2022-08-08T02:27:12.907Z,61.9760
2022-08-08T02:28:15.898Z,63.2400
2022-08-08T02:29:19.070Z,63.2360
2022-08-08T02:30:21.708Z,62.8790
2022-08-08T02:31:59.150Z,62.3690
2022-08-08T02:32:26.360Z,61.8250
2022-08-08T02:33:22.586Z,62.0490
2022-08-08T02:34:33.000Z,62.1080
2022-08-08T02:35:28.275Z,61.5830
2022-08-08T02:36:28.544Z,62.8060
2022-08-08T02:37:51.911Z,63.4850
2022-08-08T02:38:32.818Z,62.9570
2022-08-08T02:39:41.090Z,63.4310
2022-08-08T02:40:37.224Z,63.7580
2022-08-08T02:41:58.880Z,63.1360
2022-08-08T02:42:42.043Z,62.5140
2022-08-08T02:44:38.279Z,61.9000
2022-08-08T02:44:56.695Z,62.0230
2022-08-08T02:45:54.208Z,62.1800
2022-08-08T02:46:47.218Z,61.8820
2022-08-08T02:47:54.736Z,61.4830
2022-08-08T02:48:51.988Z,61.0370
2022-08-08T02:49:52.502Z,60.9850
2022-08-08T02:50:55.965Z,60.9170
2022-08-08T02:51:59.745Z,60.8460
2022-08-08T02:52:57.801Z,60.6490
2022-08-08T02:53:59.480Z,60.4810
2022-08-08T02:55:02.402Z,61.2510
2022-08-08T02:56:02.778Z,61.2620
2022-08-08T02:57:05.336Z,60.8590
2022-08-08T02:58:07.232Z,60.6000
2022-08-08T02:59:26.087Z,60.3020
2022-08-08T03:00:26.686Z,60.6900
2022-08-08T03:01:14.982Z,60.7580
2022-08-08T03:02:19.926Z,60.6900
2022-08-08T03:03:14.901Z,61.1670
2022-08-08T03:05:02.557Z,61.1950
2022-08-08T03:05:17.473Z,61.8030
2022-08-08T03:06:30.614Z,61.9670
2022-08-08T03:07:21.790Z,61.8150
2022-08-08T03:08:22.305Z,61.7920
2022-08-08T03:09:28.583Z,61.6910
2022-08-08T03:10:32.995Z,61.8180
2022-08-08T03:12:02.041Z,62.1930
2022-08-08T03:12:36.595Z,62.8760
2022-08-08T03:15:54.097Z,62.8380
2022-08-08T03:15:58.743Z,62.1800
2022-08-08T03:16:00.543Z,62.6040
2022-08-08T03:16:39.847Z,62.3600
2022-08-08T03:17:43.228Z,62.1920
2022-08-08T03:18:44.695Z,61.8950
2022-08-08T03:19:51.225Z,61.2330
2022-08-08T03:20:51.604Z,62.2210
2022-08-08T03:21:58.905Z,63.0420
2022-08-08T03:22:57.200Z,63.4170
2022-08-08T03:23:59.612Z,63.8680
2022-08-08T03:24:57.124Z,63.4400
2022-08-08T03:25:59.292Z,62.7860
2022-08-08T03:27:02.286Z,62.2360
2022-08-08T03:28:01.885Z,61.8450
2022-08-08T03:29:04.368Z,62.0090
2022-08-08T03:30:07.283Z,61.7920
2022-08-08T03:31:25.173Z,61.5550
2022-08-08T03:32:11.735Z,61.3470
2022-08-08T03:33:55.837Z,60.9300
2022-08-08T03:34:17.053Z,60.7890
2022-08-08T03:35:16.740Z,60.6270
2022-08-08T03:36:20.191Z,60.4650
2022-08-08T03:38:00.276Z,60.3910
2022-08-08T03:38:56.608Z,60.5270
2022-08-08T03:39:25.517Z,60.4700
2022-08-08T03:40:30.644Z,60.5580
2022-08-08T03:42:11.937Z,60.7610
2022-08-08T03:42:30.917Z,60.7540
2022-08-08T03:43:38.553Z,61.1780
2022-08-08T03:44:32.573Z,60.9100
2022-08-08T03:46:06.610Z,60.7810
2022-08-08T03:46:35.152Z,60.5220
2022-08-08T03:47:39.680Z,60.3450
2022-08-08T03:49:09.615Z,60.3290
2022-08-08T03:50:00.665Z,60.7360
2022-08-08T03:50:42.795Z,60.7230
2022-08-08T03:51:51.405Z,60.7800
2022-08-08T03:52:45.479Z,60.9570
2022-08-08T03:53:48.101Z,60.5410
2022-08-08T03:55:02.222Z,60.6290
2022-08-08T03:56:04.209Z,60.7200
2022-08-08T03:56:56.384Z,61.0700
2022-08-08T03:58:35.298Z,61.7070
2022-08-08T03:58:58.247Z,63.2250
2022-08-08T04:00:08.192Z,63.6720
2022-08-08T04:01:02.547Z,64.3780
2022-08-08T04:02:12.591Z,63.7940
2022-08-08T04:03:06.341Z,64.1680
2022-08-08T04:04:06.298Z,63.9520
2022-08-08T04:05:10.490Z,63.5260
2022-08-08T04:06:11.867Z,64.3000
2022-08-08T04:07:16.445Z,64.5730
2022-08-08T04:08:14.428Z,65.2440
2022-08-08T04:09:16.755Z,64.8650
2022-08-08T04:10:19.849Z,63.8380
2022-08-08T04:11:23.612Z,63.1880
2022-08-08T04:12:24.210Z,64.0040
2022-08-08T04:13:25.825Z,65.0360
2022-08-08T04:14:34.003Z,65.9060
2022-08-08T04:15:30.326Z,66.7230
2022-08-08T04:16:38.763Z,66.1960
2022-08-08T04:17:57.924Z,65.3380
2022-08-08T04:18:42.021Z,64.6540
2022-08-08T04:19:38.136Z,64.3130
2022-08-08T04:20:40.810Z,63.5260
2022-08-08T04:21:45.776Z,64.2370
2022-08-08T04:22:44.266Z,64.3580
2022-08-08T04:24:05.379Z,64.5400
2022-08-08T04:24:48.662Z,64.0520
2022-08-08T04:25:49.738Z,63.2700
2022-08-08T04:26:58.230Z,62.8580
2022-08-08T04:28:03.464Z,63.0530
2022-08-08T04:28:55.195Z,63.4700
2022-08-08T04:30:01.179Z,63.6160
2022-08-08T04:30:58.281Z,63.6490
2022-08-08T04:32:00.625Z,64.1860
2022-08-08T04:33:01.849Z,64.8570
2022-08-08T04:34:04.520Z,64.6170
2022-08-08T04:35:06.954Z,64.8650
2022-08-08T04:36:09.782Z,64.7640
2022-08-08T04:37:11.954Z,64.1790
2022-08-08T04:38:21.476Z,63.5010
2022-08-08T04:39:48.075Z,64.5710
2022-08-08T04:40:19.807Z,65.3860
2022-08-08T04:41:21.469Z,65.9980
2022-08-08T04:42:23.561Z,66.0340
2022-08-08T04:43:31.601Z,65.7790
2022-08-08T04:44:27.923Z,65.9830
2022-08-08T04:45:30.322Z,66.7750
2022-08-08T04:46:32.788Z,67.1730
2022-08-08T04:47:32.657Z,67.1870
2022-08-08T04:48:35.338Z,67.8680
2022-08-08T04:49:58.611Z,67.9790
2022-08-08T04:50:45.912Z,67.5560
2022-08-08T04:51:54.916Z,67.3580
2022-08-08T04:52:43.154Z,66.9750
2022-08-08T04:54:27.075Z,66.9940
2022-08-08T04:54:50.522Z,66.6660
2022-08-08T04:55:56.309Z,65.7490
2022-08-08T04:56:51.899Z,65.7650
2022-08-08T04:57:53.265Z,65.3360
2022-08-08T04:58:53.964Z,65.6520
2022-08-08T04:59:58.058Z,65.4450
2022-08-08T05:00:58.589Z,65.7540
2022-08-08T05:02:01.193Z,65.6950
2022-08-08T05:03:05.694Z,66.3050
2022-08-08T05:04:10.542Z,66.8440
2022-08-08T05:05:15.919Z,67.3800
2022-08-08T05:06:12.663Z,68.2370
2022-08-08T05:07:15.134Z,68.2710
2022-08-08T05:08:15.425Z,68.1590
2022-08-08T05:09:16.951Z,68.6880
2022-08-08T05:10:19.863Z,69.5680
2022-08-08T05:11:24.661Z,70.2760
2022-08-08T05:12:29.536Z,70.2680
2022-08-08T05:13:23.797Z,69.3160
2022-08-08T05:14:29.290Z,68.5020
2022-08-08T05:16:47.514Z,67.3380
2022-08-08T05:16:52.273Z,66.6460
2022-08-08T05:17:53.703Z,65.8930
2022-08-08T05:18:34.445Z,65.7040
2022-08-08T05:20:09.081Z,65.9960
2022-08-08T05:20:48.538Z,66.4350
2022-08-08T05:21:43.804Z,66.2270
2022-08-08T05:22:41.884Z,66.6530
2022-08-08T05:23:46.110Z,66.7180
2022-08-08T05:24:48.163Z,66.1450
2022-08-08T05:25:46.801Z,66.0750
2022-08-08T05:26:48.996Z,66.1640
2022-08-08T05:27:49.496Z,66.4270
2022-08-08T05:28:57.587Z,65.7100
2022-08-08T05:29:54.927Z,65.6150
2022-08-08T05:30:54.593Z,65.5030
2022-08-08T05:32:05.565Z,64.9370
2022-08-08T05:32:59.818Z,64.1830
2022-08-08T05:34:02.691Z,63.3580
2022-08-08T05:35:05.163Z,62.6000
2022-08-08T05:36:04.957Z,62.0350
2022-08-08T05:37:15.959Z,61.5670
2022-08-08T05:38:30.559Z,61.1740
2022-08-08T05:39:11.246Z,60.8700
2022-08-08T05:40:14.860Z,60.7700
2022-08-08T05:41:15.947Z,60.5100
2022-08-08T05:42:16.263Z,60.4490
2022-08-08T05:44:02.129Z,60.1780
2022-08-08T05:44:20.807Z,59.9420
2022-08-08T05:45:25.039Z,59.9380
2022-08-08T05:46:26.953Z,59.6940
2022-08-08T05:47:41.770Z,59.5490
2022-08-08T05:48:31.331Z,59.4420
2022-08-08T05:49:31.032Z,59.4640
2022-08-08T05:50:33.594Z,59.2470
2022-08-08T05:51:47.914Z,59.0730
2022-08-08T05:52:37.639Z,58.9900
2022-08-08T05:54:24.995Z,58.9330
2022-08-08T05:54:49.733Z,58.8840
2022-08-08T05:56:10.453Z,58.7710
2022-08-08T05:56:48.327Z,58.8490
2022-08-08T05:58:04.037Z,58.6960
2022-08-08T05:58:58.044Z,58.7250
2022-08-08T05:59:53.584Z,58.6570
2022-08-08T06:00:58.281Z,58.4620
2022-08-08T06:01:58.004Z,58.4620
2022-08-08T06:02:59.740Z,58.6220
2022-08-08T06:03:59.248Z,58.5740
2022-08-08T06:05:01.552Z,58.5850
2022-08-08T06:06:05.219Z,58.5620
2022-08-08T06:07:03.695Z,58.4880
2022-08-08T06:08:10.500Z,58.3890
2022-08-08T06:09:41.718Z,58.4460
2022-08-08T06:10:10.921Z,58.3670
2022-08-08T06:11:13.505Z,58.3220
2022-08-08T06:12:18.748Z,58.2420
2022-08-08T06:13:18.290Z,58.2260
2022-08-08T06:14:18.363Z,58.1450
2022-08-08T06:15:21.088Z,58.1440
2022-08-08T06:16:27.371Z,58.0110
2022-08-08T06:17:51.410Z,57.9300
2022-08-08T06:18:28.131Z,57.9210
2022-08-08T06:19:27.878Z,57.8610
2022-08-08T06:20:30.032Z,57.9140
2022-08-08T06:21:33.022Z,57.8860
2022-08-08T06:22:36.383Z,57.8680
2022-08-08T06:23:53.111Z,57.8740
2022-08-08T06:24:40.352Z,57.7740
2022-08-08T06:26:43.199Z,57.7510
2022-08-08T06:26:44.418Z,57.8110
2022-08-08T06:27:48.061Z,57.7700
2022-08-08T06:28:44.581Z,57.6830
2022-08-08T06:29:56.585Z,57.6940
2022-08-08T06:30:49.232Z,57.7120
2022-08-08T06:32:09.531Z,57.6830
2022-08-08T06:32:52.592Z,57.6470
2022-08-08T06:34:27.344Z,57.6020
2022-08-08T06:35:11.591Z,57.5060
2022-08-08T06:36:08.477Z,57.5960
2022-08-08T06:37:00.105Z,57.5470
2022-08-08T06:37:59.866Z,57.5100
2022-08-08T06:39:01.870Z,57.4230
2022-08-08T06:40:04.221Z,57.3970
2022-08-08T06:41:06.405Z,57.3920
2022-08-08T06:42:08.669Z,57.3180
2022-08-08T06:43:11.861Z,57.3370
2022-08-08T06:44:22.992Z,57.3310
2022-08-08T06:45:16.877Z,57.2960
2022-08-08T06:46:17.877Z,57.2500
2022-08-08T06:47:22.335Z,57.2020
2022-08-08T06:48:21.636Z,57.1950
2022-08-08T06:49:54.818Z,57.1720
2022-08-08T06:50:31.252Z,57.1190
2022-08-08T06:51:31.201Z,57.0190
2022-08-08T06:52:27.870Z,57.0870
2022-08-08T06:53:38.885Z,57.1260
2022-08-08T06:54:32.222Z,57.1850
2022-08-08T06:55:37.460Z,57.0490
2022-08-08T06:56:37.128Z,57.1200
2022-08-08T06:57:54.083Z,57.0490
2022-08-08T06:58:41.545Z,57.0340
2022-08-08T07:00:10.933Z,57.0060
2022-08-08T07:00:44.936Z,57.1460
2022-08-08T07:02:26.592Z,57.1130
2022-08-08T07:02:48.829Z,56.9380
2022-08-08T07:04:37.613Z,56.9620
2022-08-08T07:04:54.040Z,56.9580
2022-08-08T07:06:02.098Z,57.0160
2022-08-08T07:06:58.085Z,56.9930
2022-08-08T07:08:00.703Z,56.9810
2022-08-08T07:09:03.884Z,56.9990
2022-08-08T07:10:08.246Z,56.9400
2022-08-08T07:11:07.763Z,56.9020
2022-08-08T07:12:09.888Z,56.8820
2022-08-08T07:13:11.039Z,56.9020
2022-08-08T07:14:12.262Z,56.7970
2022-08-08T07:15:32.008Z,56.7740
2022-08-08T07:16:15.401Z,56.7480
2022-08-08T07:17:19.761Z,56.7330
2022-08-08T07:18:35.546Z,56.8400
2022-08-08T07:19:19.932Z,56.7800
2022-08-08T07:20:23.364Z,56.7800
2022-08-08T07:21:24.685Z,56.6820
2022-08-08T07:22:27.062Z,56.6400
2022-08-08T07:23:29.140Z,56.8220
2022-08-08T07:24:31.897Z,56.7360
2022-08-08T07:25:33.842Z,56.7980
2022-08-08T07:26:36.290Z,56.7640
2022-08-08T07:27:47.206Z,56.5660
2022-08-08T07:28:41.644Z,56.5810
2022-08-08T07:30:01.809Z,56.4860
2022-08-08T07:30:45.368Z,56.4260
2022-08-08T07:31:48.331Z,56.5810
2022-08-08T07:32:52.525Z,56.5390
2022-08-08T07:33:53.848Z,56.5390
2022-08-08T07:35:00.618Z,56.4500
2022-08-08T07:35:57.383Z,56.4560
2022-08-08T07:36:59.414Z,56.4140
2022-08-08T07:38:10.501Z,56.3080
2022-08-08T07:39:04.083Z,56.2610
2022-08-08T07:40:06.202Z,56.4080
2022-08-08T07:41:08.806Z,56.3450
2022-08-08T07:42:12.682Z,56.2850
2022-08-08T07:43:13.164Z,56.2620
2022-08-08T07:44:37.616Z,56.2690
2022-08-08T07:45:18.408Z,56.2750
2022-08-08T07:46:29.240Z,56.2430
2022-08-08T07:47:29.172Z,56.2560
2022-08-08T07:48:23.481Z,56.1390
2022-08-08T07:49:26.888Z,56.1960
2022-08-08T07:50:25.457Z,56.2120
2022-08-08T07:51:45.295Z,56.1520
2022-08-08T07:52:30.232Z,56.1520
2022-08-08T07:54:01.487Z,56.1840
2022-08-08T07:54:32.706Z,56.2050
2022-08-08T07:55:36.469Z,56.1780
2022-08-08T07:56:36.966Z,56.0670
2022-08-08T07:57:39.990Z,56.1360
2022-08-08T07:58:39.986Z,56.0650
2022-08-08T07:59:42.264Z,55.9530
2022-08-08T08:00:44.642Z,55.9720
2022-08-08T08:02:33.135Z,55.9750
2022-08-08T08:02:49.997Z,56.0850
2022-08-08T08:03:52.415Z,56.0340
2022-08-08T08:04:53.966Z,56.0510
2022-08-08T08:05:56.535Z,56.0470
2022-08-08T08:06:58.598Z,56.1000
2022-08-08T08:08:01.921Z,56.0600
2022-08-08T08:09:01.921Z,56.0180
2022-08-08T08:10:04.494Z,55.9390
2022-08-08T08:11:06.436Z,55.8410
2022-08-08T08:12:09.392Z,55.9540
2022-08-08T08:13:17.744Z,55.8180
2022-08-08T08:14:15.231Z,55.7690
2022-08-08T08:15:15.638Z,55.7930
2022-08-08T08:16:17.009Z,55.7020
2022-08-08T08:17:17.696Z,55.7550
2022-08-08T08:18:27.365Z,55.7320
2022-08-08T08:19:22.944Z,55.6530
2022-08-08T08:20:30.288Z,55.6850
2022-08-08T08:21:44.071Z,55.6400
2022-08-08T08:22:33.670Z,55.6240
2022-08-08T08:23:30.401Z,55.6370
2022-08-08T08:24:35.153Z,55.5730
2022-08-08T08:25:42.290Z,55.4800
2022-08-08T08:26:36.739Z,55.4800
2022-08-08T08:27:36.729Z,55.3810
2022-08-08T08:28:39.092Z,55.2860
2022-08-08T08:29:42.446Z,55.3220
2022-08-08T08:30:43.725Z,55.2500
2022-08-08T08:31:46.039Z,55.1570
2022-08-08T08:32:51.292Z,55.0520
2022-08-08T08:33:50.667Z,54.9960
2022-08-08T08:34:50.921Z,55.0980
2022-08-08T08:36:19.380Z,55.1240
2022-08-08T08:36:55.580Z,55.0450
2022-08-08T08:38:15.630Z,54.9530
2022-08-08T08:38:58.218Z,54.9380
2022-08-08T08:40:02.949Z,54.8390
2022-08-08T08:41:00.778Z,54.9640
2022-08-08T08:42:03.166Z,54.8260
2022-08-08T08:43:09.038Z,54.9830
2022-08-08T08:44:14.272Z,54.7760
2022-08-08T08:45:20.897Z,54.7170
2022-08-08T08:46:10.221Z,54.4960
2022-08-08T08:47:12.523Z,54.6450
2022-08-08T08:48:16.405Z,54.4350
2022-08-08T08:49:17.329Z,54.2370
2022-08-08T08:50:33.361Z,54.3090
2022-08-08T08:51:19.591Z,54.3340
2022-08-08T08:52:21.954Z,53.7980
2022-08-08T08:53:54.405Z,53.9130
2022-08-08T08:54:25.414Z,53.7510
2022-08-08T08:55:26.863Z,53.4830
2022-08-08T08:56:29.450Z,53.6070
2022-08-08T08:57:29.566Z,53.6200
2022-08-08T08:58:31.792Z,53.4460
2022-08-08T08:59:58.780Z,53.2200
2022-08-08T09:01:05.382Z,53.2430
2022-08-08T09:01:43.872Z,53.3220
2022-08-08T09:02:41.670Z,53.2870
2022-08-08T09:03:47.740Z,53.2490
2022-08-08T09:04:50.060Z,53.1840
2022-08-08T09:05:54.571Z,53.1000
2022-08-08T09:06:51.536Z,53.2260
2022-08-08T09:08:12.438Z,53.0840
2022-08-08T09:08:55.037Z,53.0650
2022-08-08T09:09:58.190Z,52.7140
2022-08-08T09:10:57.544Z,52.8880
2022-08-08T09:12:01.569Z,52.8850
2022-08-08T09:13:02.262Z,52.7870
2022-08-08T09:14:04.561Z,52.7140
2022-08-08T09:15:06.910Z,52.5200
2022-08-08T09:16:09.220Z,52.6410
2022-08-08T09:17:17.358Z,52.7600
2022-08-08T09:18:13.843Z,52.5930
2022-08-08T09:19:16.117Z,52.3450
2022-08-08T09:21:58.544Z,52.5190
2022-08-08T09:21:58.691Z,52.5790
2022-08-08T09:22:26.633Z,52.6660
2022-08-08T09:23:25.669Z,52.8090
2022-08-08T09:24:25.702Z,52.5730
2022-08-08T09:25:35.969Z,52.8440
2022-08-08T09:26:32.514Z,52.8820
2022-08-08T09:27:41.821Z,52.9400
2022-08-08T09:28:37.728Z,53.0640
2022-08-08T09:29:37.408Z,53.0110
2022-08-08T09:30:39.797Z,53.0180
2022-08-08T09:31:42.241Z,53.1600
2022-08-08T09:33:12.182Z,53.1250
2022-08-08T09:34:06.177Z,53.1060
2022-08-08T09:34:50.295Z,53.0470
2022-08-08T09:35:49.716Z,52.9670
2022-08-08T09:37:10.259Z,53.0170
2022-08-08T09:38:00.850Z,53.1960
2022-08-08T09:38:53.715Z,53.1450
2022-08-08T09:39:54.694Z,53.1070
2022-08-08T09:40:57.583Z,53.0830
2022-08-08T09:42:21.308Z,52.9930
2022-08-08T09:43:01.661Z,53.0510
2022-08-08T09:44:05.480Z,53.0050
2022-08-08T09:45:15.330Z,52.8970
2022-08-08T09:46:11.036Z,53.0830
2022-08-08T09:48:05.159Z,53.0950
2022-08-08T09:48:21.139Z,53.0050
2022-08-08T09:49:42.592Z,52.9680
2022-08-08T09:50:15.838Z,53.1290
2022-08-08T09:51:18.208Z,52.9870
2022-08-08T09:52:58.288Z,52.9550
2022-08-08T09:53:31.632Z,53.2360
2022-08-08T09:54:37.038Z,53.2420
2022-08-08T09:55:31.727Z,52.9640
2022-08-08T09:56:27.780Z,53.2080
2022-08-08T09:57:28.241Z,53.1120
2022-08-08T09:58:40.376Z,52.9730
2022-08-08T10:00:01.194Z,52.8560
2022-08-08T10:00:49.701Z,52.7070
2022-08-08T10:02:00.150Z,52.6760
2022-08-08T10:02:37.556Z,52.6110
2022-08-08T10:03:39.924Z,52.5470
2022-08-08T10:04:47.965Z,52.3070
2022-08-08T10:05:42.601Z,52.2200
2022-08-08T10:06:44.985Z,52.2970
2022-08-08T10:07:47.204Z,52.1660
2022-08-08T10:08:49.571Z,52.0430
2022-08-08T10:10:00.065Z,51.9350
2022-08-08T10:10:54.276Z,51.8960
2022-08-08T10:12:26.756Z,51.8830
2022-08-08T10:12:57.370Z,51.9790
2022-08-08T10:13:59.080Z,51.8520
2022-08-08T10:15:01.414Z,51.6380
2022-08-08T10:16:05.152Z,51.5050
2022-08-08T10:17:38.600Z,51.5470
2022-08-08T10:18:10.573Z,51.6210
2022-08-08T10:19:10.634Z,51.4930
2022-08-08T10:20:12.937Z,51.6590
2022-08-08T10:21:24.921Z,51.5280
2022-08-08T10:22:15.450Z,51.7280
2022-08-08T10:23:38.036Z,51.5840
2022-08-08T10:24:28.548Z,51.5740
2022-08-08T10:25:22.364Z,51.4680
2022-08-08T10:26:29.866Z,51.5430
2022-08-08T10:27:27.268Z,51.7560
2022-08-08T10:28:27.251Z,51.5040
2022-08-08T10:29:37.939Z,51.7460
2022-08-08T10:30:59.632Z,51.7310
2022-08-08T10:31:46.463Z,51.7500
2022-08-08T10:32:34.821Z,51.8810
2022-08-08T10:33:38.322Z,51.8040
2022-08-08T10:34:38.877Z,51.6570
2022-08-08T10:36:09.490Z,51.9170
2022-08-08T10:36:43.471Z,52.0060
2022-08-08T10:37:45.813Z,51.9000
2022-08-08T10:38:48.058Z,52.0830
2022-08-08T10:39:53.604Z,51.7320
2022-08-08T10:40:53.263Z,51.8860
2022-08-08T10:41:58.891Z,51.9420
2022-08-08T10:42:55.195Z,51.9500
2022-08-08T10:43:57.496Z,51.9470
2022-08-08T10:44:59.809Z,51.9860
2022-08-08T10:45:59.964Z,52.1460
2022-08-08T10:47:02.288Z,51.8570
2022-08-08T10:48:04.610Z,51.9280
2022-08-08T10:49:06.919Z,52.0490
2022-08-08T10:50:07.086Z,52.1320
2022-08-08T10:51:09.373Z,52.1000
2022-08-08T10:52:11.644Z,52.0880
2022-08-08T10:53:13.997Z,52.0760
2022-08-08T10:54:16.322Z,52.1720
2022-08-08T10:55:39.718Z,52.0950
2022-08-08T10:56:27.455Z,52.3070
2022-08-08T10:57:36.908Z,52.1180
2022-08-08T10:58:23.614Z,52.3260
2022-08-08T10:59:25.907Z,52.1430
2022-08-08T11:00:28.224Z,52.2260
2022-08-08T11:01:33.463Z,52.2400
2022-08-08T11:02:33.287Z,52.1240
2022-08-08T11:03:36.812Z,52.1010
2022-08-08T11:04:39.046Z,52.1710
2022-08-08T11:05:39.670Z,52.4030
2022-08-08T11:06:41.888Z,52.1090
2022-08-08T11:08:36.972Z,52.3190
2022-08-08T11:08:53.066Z,52.1400
2022-08-08T11:09:46.582Z,52.3130
2022-08-08T11:10:46.721Z,52.1720
2022-08-08T11:12:06.027Z,52.2760
2022-08-08T11:13:06.481Z,52.3530
2022-08-08T11:14:00.004Z,52.2630
2022-08-08T11:14:53.723Z,52.2240
2022-08-08T11:16:00.641Z,52.2240
2022-08-08T11:16:58.380Z,52.1760
2022-08-08T11:18:02.329Z,52.3430
2022-08-08T11:19:03.050Z,52.3490
2022-08-08T11:20:10.698Z,52.3490
2022-08-08T11:21:09.142Z,52.2720
2022-08-08T11:22:09.968Z,52.4660
2022-08-08T11:23:12.284Z,52.3550
2022-08-08T11:24:14.620Z,52.3780
2022-08-08T11:25:16.893Z,52.4660
2022-08-08T11:26:21.026Z,52.2760
2022-08-08T11:27:23.419Z,52.5140
2022-08-08T11:28:23.880Z,52.3660
2022-08-08T11:29:41.901Z,52.3600
2022-08-08T11:30:31.592Z,52.5330
2022-08-08T11:31:30.080Z,52.3780
2022-08-08T11:32:31.551Z,52.5660
2022-08-08T11:33:51.219Z,52.3950
2022-08-08T11:34:41.935Z,52.5370
2022-08-08T11:35:43.389Z,52.5620
2022-08-08T11:36:38.459Z,52.5240
2022-08-08T11:38:38.981Z,52.5380
2022-08-08T11:38:54.627Z,52.4350
2022-08-08T11:39:41.674Z,52.3280
2022-08-08T11:40:48.486Z,52.1290
2022-08-08T11:41:46.106Z,52.0600
2022-08-08T11:42:48.378Z,51.8190
2022-08-08T11:43:49.109Z,51.8420
2022-08-08T11:44:50.738Z,51.8050
2022-08-08T11:46:09.806Z,51.6760
2022-08-08T11:46:55.263Z,51.8490
2022-08-08T11:48:04.387Z,51.6410
2022-08-08T11:48:59.854Z,51.8740
2022-08-08T11:50:02.179Z,51.7300
2022-08-08T11:51:30.658Z,51.7640
2022-08-08T11:52:04.582Z,51.8590
2022-08-08T11:53:06.873Z,51.9200
2022-08-08T11:54:26.702Z,51.5000
2022-08-08T11:55:11.423Z,51.8850
2022-08-08T11:56:13.722Z,51.8080
2022-08-08T11:57:17.259Z,51.4420
2022-08-08T11:58:18.299Z,51.2890
2022-08-08T11:59:18.432Z,51.2420
2022-08-08T12:00:20.742Z,50.8920
2022-08-08T12:01:23.015Z,50.6710
2022-08-08T12:02:33.756Z,50.4690
2022-08-08T12:03:30.728Z,50.4390
2022-08-08T12:04:29.882Z,50.4230
2022-08-08T12:05:33.740Z,50.2600
2022-08-08T12:06:32.307Z,50.2420
2022-08-08T12:07:34.594Z,50.2790
2022-08-08T12:08:36.883Z,50.1190
2022-08-08T12:09:59.715Z,50.1270
2022-08-08T12:10:39.370Z,50.0920
2022-08-08T12:11:41.634Z,50.0610
2022-08-08T12:12:46.042Z,50.1310
2022-08-08T12:14:03.564Z,50.0300
2022-08-08T12:14:54.768Z,50.0300
2022-08-08T12:15:50.884Z,49.9600
2022-08-08T12:16:53.129Z,49.9270
2022-08-08T12:17:55.420Z,49.8450
2022-08-08T12:18:57.779Z,49.9320
2022-08-08T12:20:00.110Z,49.8490
2022-08-08T12:21:00.305Z,49.9650
2022-08-08T12:22:09.429Z,50.1440
2022-08-08T12:23:05.041Z,50.3330
2022-08-08T12:24:07.315Z,50.4630
2022-08-08T12:25:09.659Z,50.5110
2022-08-08T12:26:09.906Z,50.3590
2022-08-08T12:27:12.217Z,50.3270
2022-08-08T12:28:15.915Z,50.5040